createdAt,value
2022-10-09T00:01:26.083Z,8.43
2022-10-09T00:03:56.798Z,8.90
2022-10-09T00:06:31.538Z,8.95
2022-10-09T00:08:59.303Z,8.20
2022-10-09T00:11:27.485Z,8.00
2022-10-09T00:13:55.634Z,8.00
2022-10-09T00:16:23.208Z,8.52
2022-10-09T00:18:50.432Z,7.75
2022-10-09T00:21:26.093Z,8.40
2022-10-09T00:23:54.887Z,8.48
2022-10-09T00:26:21.694Z,8.45
2022-10-09T00:28:49.176Z,8.13
2022-10-09T00:31:16.525Z,8.48
2022-10-09T00:33:43.055Z,8.23
2022-10-09T00:36:13.288Z,8.20
2022-10-09T00:38:40.124Z,7.10
2022-10-09T00:41:07.329Z,7.85
2022-10-09T00:43:44.706Z,8.07
2022-10-09T00:46:20.246Z,7.95
2022-10-09T00:49:00.010Z,7.47
2022-10-09T00:51:27.413Z,7.45
2022-10-09T00:54:16.581Z,7.30
2022-10-09T00:56:46.668Z,6.88
2022-10-09T00:59:14.020Z,6.97
2022-10-09T01:01:41.491Z,7.15
2022-10-09T01:04:08.063Z,7.45
2022-10-09T01:06:48.256Z,7.25
2022-10-09T01:09:28.115Z,6.93
2022-10-09T01:12:03.593Z,7.10
2022-10-09T01:14:34.028Z,6.43
2022-10-09T01:17:09.578Z,7.15
2022-10-09T01:19:54.814Z,5.97
2022-10-09T01:22:42.392Z,6.00
2022-10-09T01:25:14.846Z,6.25
2022-10-09T01:27:43.616Z,6.32
2022-10-09T01:30:12.187Z,6.65
2022-10-09T01:32:47.052Z,6.55
2022-10-09T01:35:15.239Z,6.13
2022-10-09T01:37:44.216Z,6.13
2022-10-09T01:40:14.157Z,6.25
2022-10-09T01:42:40.695Z,6.38
2022-10-09T01:45:11.037Z,5.80
2022-10-09T01:47:38.003Z,5.93
2022-10-09T01:50:22.993Z,6.20
2022-10-09T01:52:53.061Z,6.00
2022-10-09T01:55:28.818Z,6.22
2022-10-09T01:58:16.963Z,5.95
2022-10-09T02:01:04.588Z,5.68
2022-10-09T02:03:33.488Z,5.22
2022-10-09T02:06:01.933Z,5.38
2022-10-09T02:08:30.008Z,6.07
2022-10-09T02:11:00.305Z,5.30
2022-10-09T02:13:29.730Z,6.13
2022-10-09T02:16:09.565Z,5.80
2022-10-09T02:18:48.439Z,4.80
2022-10-09T02:21:25.393Z,5.25
2022-10-09T02:23:53.514Z,4.75
2022-10-09T02:26:20.082Z,5.05
2022-10-09T02:28:46.914Z,5.10
2022-10-09T02:31:22.906Z,5.38
2022-10-09T02:34:05.061Z,4.85
2022-10-09T02:36:32.401Z,5.03
2022-10-09T02:38:59.543Z,4.95
2022-10-09T02:41:26.519Z,5.18
2022-10-09T02:43:53.160Z,4.78
2022-10-09T02:46:20.085Z,4.60
2022-10-09T02:48:46.615Z,5.32
2022-10-09T02:51:13.041Z,5.05
2022-10-09T02:53:39.491Z,4.90
2022-10-09T02:56:06.128Z,4.32
2022-10-09T02:58:34.255Z,5.63
2022-10-09T03:01:01.167Z,4.88
2022-10-09T03:03:27.664Z,4.57
2022-10-09T03:06:05.716Z,4.57
2022-10-09T03:08:32.606Z,4.80
2022-10-09T03:10:59.092Z,4.53
2022-10-09T03:13:25.578Z,4.20
2022-10-09T03:15:52.102Z,4.93
2022-10-09T03:18:18.937Z,4.50
2022-10-09T03:20:45.520Z,4.57
2022-10-09T03:23:12.461Z,4.45
2022-10-09T03:25:38.915Z,4.35
2022-10-09T03:28:05.426Z,4.40
2022-10-09T03:30:31.910Z,3.90
2022-10-09T03:32:58.299Z,4.20
2022-10-09T03:35:24.724Z,3.97
2022-10-09T03:37:51.160Z,4.07
2022-10-09T03:40:18.391Z,3.75
2022-10-09T03:42:44.791Z,4.40
2022-10-09T03:45:11.234Z,4.20
2022-10-09T03:47:37.620Z,4.00
2022-10-09T03:50:04.304Z,4.10
2022-10-09T03:52:30.709Z,3.95
2022-10-09T03:54:57.123Z,3.92
2022-10-09T03:57:23.632Z,3.70
2022-10-09T03:59:50.046Z,3.85
2022-10-09T04:02:16.472Z,4.05
2022-10-09T04:04:42.935Z,4.10
2022-10-09T04:07:11.793Z,3.88
2022-10-09T04:09:38.252Z,3.45
2022-10-09T04:12:04.719Z,3.90
2022-10-09T04:14:31.125Z,3.40
2022-10-09T04:16:57.566Z,3.90
2022-10-09T04:19:24.035Z,3.70
2022-10-09T04:21:50.461Z,3.75
2022-10-09T04:24:16.874Z,3.55
2022-10-09T04:26:43.310Z,3.30
2022-10-09T04:29:11.145Z,3.55
2022-10-09T04:31:37.709Z,3.65
2022-10-09T04:34:04.155Z,3.90
2022-10-09T04:36:30.605Z,3.47
2022-10-09T04:38:57.070Z,3.50
2022-10-09T04:41:23.807Z,3.25
2022-10-09T04:43:54.618Z,3.67
2022-10-09T04:46:21.053Z,3.10
2022-10-09T04:48:48.058Z,3.28
2022-10-09T04:51:16.180Z,3.28
2022-10-09T04:53:42.990Z,3.55
2022-10-09T04:56:11.691Z,3.70
2022-10-09T04:58:40.680Z,3.30
2022-10-09T05:01:12.422Z,3.33
2022-10-09T05:03:39.229Z,2.92
2022-10-09T05:06:08.116Z,3.38
2022-10-09T05:08:35.219Z,2.88
2022-10-09T05:11:03.215Z,3.30
2022-10-09T05:13:31.084Z,3.38
2022-10-09T05:16:01.088Z,2.92
2022-10-09T05:18:27.577Z,2.80
2022-10-09T05:20:54.175Z,3.13
2022-10-09T05:23:20.610Z,2.65
2022-10-09T05:26:02.577Z,2.47
2022-10-09T05:28:29.210Z,3.08
2022-10-09T05:30:55.675Z,3.00
2022-10-09T05:33:22.326Z,2.78
2022-10-09T05:35:57.340Z,2.90
2022-10-09T05:38:25.014Z,2.70
2022-10-09T05:40:59.916Z,2.72
2022-10-09T05:43:35.270Z,2.65
2022-10-09T05:46:12.391Z,2.78
2022-10-09T05:48:40.661Z,2.33
2022-10-09T05:51:18.820Z,2.78
2022-10-09T05:53:46.715Z,2.72
2022-10-09T05:56:14.496Z,3.00
2022-10-09T05:58:42.046Z,2.80
2022-10-09T06:01:09.050Z,2.90
2022-10-09T06:03:36.880Z,2.72
2022-10-09T06:06:05.216Z,2.88
2022-10-09T06:08:34.018Z,2.63
2022-10-09T06:11:12.651Z,2.60
2022-10-09T06:13:39.548Z,2.38
2022-10-09T06:16:06.388Z,2.72
2022-10-09T06:18:33.391Z,2.50
2022-10-09T06:21:01.428Z,2.78
2022-10-09T06:23:28.532Z,2.50
2022-10-09T06:25:57.556Z,2.50
2022-10-09T06:28:25.215Z,2.50
2022-10-09T06:30:51.707Z,2.78
2022-10-09T06:33:18.055Z,2.20
2022-10-09T06:35:44.456Z,2.38
2022-10-09T06:38:10.860Z,2.63
2022-10-09T06:40:38.347Z,2.53
2022-10-09T06:43:05.330Z,2.50
2022-10-09T06:45:35.751Z,2.67
2022-10-09T06:48:02.169Z,2.40
2022-10-09T06:50:28.568Z,2.75
2022-10-09T06:52:55.021Z,2.90
2022-10-09T06:55:24.095Z,2.38
2022-10-09T07:00:20.687Z,2.33
2022-10-09T07:02:47.404Z,2.42
2022-10-09T07:05:14.218Z,2.80
2022-10-09T07:07:41.750Z,2.72
2022-10-09T07:10:09.464Z,2.53
2022-10-09T07:12:37.004Z,2.40
2022-10-09T07:15:05.851Z,2.33
2022-10-09T07:17:33.028Z,2.20
2022-10-09T07:19:59.510Z,2.20
2022-10-09T07:22:27.109Z,2.15
2022-10-09T07:24:53.788Z,2.40
2022-10-09T07:27:20.210Z,2.42
2022-10-09T07:29:46.696Z,2.33
2022-10-09T07:32:13.077Z,2.10
2022-10-09T07:34:39.514Z,2.25
2022-10-09T07:37:05.926Z,2.30
2022-10-09T07:39:32.376Z,2.17
2022-10-09T07:41:58.789Z,2.10
2022-10-09T07:44:25.188Z,2.33
2022-10-09T07:46:51.861Z,2.20
2022-10-09T07:49:18.394Z,2.13
2022-10-09T07:51:45.306Z,2.30
2022-10-09T07:54:12.264Z,2.28
2022-10-09T07:56:39.118Z,2.38
2022-10-09T07:59:08.389Z,2.20
2022-10-09T08:01:35.976Z,1.90
2022-10-09T08:04:03.397Z,2.38
2022-10-09T08:06:30.650Z,2.30
2022-10-09T08:08:58.361Z,2.20
2022-10-09T08:11:27.035Z,2.05
2022-10-09T08:13:56.139Z,2.20
2022-10-09T08:16:25.501Z,2.20
2022-10-09T08:18:56.877Z,2.17
2022-10-09T08:21:23.385Z,2.08
2022-10-09T08:23:54.185Z,2.00
2022-10-09T08:26:22.458Z,1.95
2022-10-09T08:29:00.371Z,1.75
2022-10-09T08:31:28.099Z,1.85
2022-10-09T08:33:55.973Z,2.08
2022-10-09T08:36:23.492Z,1.95
2022-10-09T08:38:50.054Z,1.90
2022-10-09T08:41:33.083Z,2.00
2022-10-09T08:46:37.841Z,2.00
2022-10-09T08:49:05.215Z,1.80
2022-10-09T08:51:37.351Z,1.73
2022-10-09T08:54:22.643Z,2.03
2022-10-09T08:56:50.631Z,1.88
2022-10-09T08:59:17.157Z,2.00
2022-10-09T09:02:07.881Z,2.00
2022-10-09T09:04:55.517Z,2.05
2022-10-09T09:07:43.682Z,2.10
2022-10-09T09:10:39.365Z,2.15
2022-10-09T09:14:01.208Z,1.85
2022-10-09T09:16:49.111Z,1.77
2022-10-09T09:19:15.475Z,1.90
2022-10-09T09:21:51.164Z,1.50
2022-10-09T09:24:20.869Z,1.80
2022-10-09T09:26:51.746Z,1.80
2022-10-09T09:29:25.280Z,1.70
2022-10-09T09:31:57.448Z,1.80
2022-10-09T09:34:41.879Z,1.73
2022-10-09T09:37:11.607Z,1.80
2022-10-09T09:42:27.217Z,2.03
2022-10-09T09:45:03.034Z,2.08
2022-10-09T09:47:45.546Z,1.88
2022-10-09T09:50:35.182Z,1.63
2022-10-09T09:53:05.235Z,1.60
2022-10-09T09:55:33.327Z,1.60
2022-10-09T09:58:13.480Z,1.85
2022-10-09T10:00:40.112Z,1.70
2022-10-09T10:03:14.610Z,1.58
2022-10-09T10:05:42.919Z,1.60
2022-10-09T10:08:33.771Z,1.60
2022-10-09T10:11:02.886Z,1.50
2022-10-09T10:14:05.326Z,1.65
2022-10-09T10:16:38.243Z,1.83
2022-10-09T10:19:06.106Z,1.38
2022-10-09T10:21:41.897Z,1.40
2022-10-09T10:24:14.091Z,1.67
2022-10-09T10:26:40.484Z,1.50
2022-10-09T10:29:23.622Z,1.50
2022-10-09T10:32:05.423Z,1.45
2022-10-09T10:35:13.149Z,1.50
2022-10-09T10:38:01.354Z,1.45
2022-10-09T10:40:41.834Z,1.50
2022-10-09T10:43:11.341Z,1.63
2022-10-09T10:45:52.727Z,1.60
2022-10-09T10:48:29.364Z,1.30
2022-10-09T10:51:19.753Z,1.27
2022-10-09T10:53:55.378Z,1.40
2022-10-09T10:56:47.164Z,1.63
2022-10-09T10:59:48.505Z,1.60
2022-10-09T11:02:48.610Z,1.42
2022-10-09T11:05:26.972Z,1.63
2022-10-09T11:08:11.064Z,1.38
2022-10-09T11:11:01.605Z,1.50
2022-10-09T11:13:49.161Z,1.65
2022-10-09T11:16:34.566Z,1.52
2022-10-09T11:19:00.960Z,1.33
2022-10-09T11:21:38.145Z,1.58
2022-10-09T11:24:26.708Z,1.50
2022-10-09T11:27:24.016Z,1.10
2022-10-09T11:29:57.239Z,1.30
2022-10-09T11:32:38.668Z,1.25
2022-10-09T11:35:18.580Z,1.38
2022-10-09T11:38:03.519Z,1.40
2022-10-09T11:40:38.352Z,1.30
2022-10-09T11:43:19.235Z,1.13
2022-10-09T11:46:04.131Z,1.60
2022-10-09T11:48:33.520Z,1.10
2022-10-09T11:51:35.152Z,1.40
2022-10-09T11:54:03.716Z,1.40
2022-10-09T11:56:32.222Z,0.95
2022-10-09T11:59:06.853Z,1.10
2022-10-09T12:01:41.691Z,1.30
2022-10-09T12:04:14.036Z,1.40
2022-10-09T12:06:52.792Z,1.05
2022-10-09T12:09:28.277Z,1.30
2022-10-09T12:12:07.257Z,1.50
2022-10-09T12:14:37.178Z,1.00
2022-10-09T12:17:15.604Z,1.20
2022-10-09T12:19:42.927Z,1.20
2022-10-09T12:22:41.333Z,1.23
2022-10-09T12:25:19.363Z,1.40
2022-10-09T12:27:49.032Z,1.40
2022-10-09T12:30:20.827Z,1.05
2022-10-09T12:33:02.269Z,1.20
2022-10-09T12:35:39.810Z,1.20
2022-10-09T12:38:25.859Z,1.33
2022-10-09T12:40:54.282Z,1.20
2022-10-09T12:43:23.569Z,1.05
2022-10-09T12:45:52.679Z,1.25
2022-10-09T12:48:22.902Z,1.17
2022-10-09T12:50:49.710Z,1.08
2022-10-09T12:53:18.892Z,0.88
2022-10-09T12:55:49.363Z,1.20
2022-10-09T12:58:32.329Z,1.10
2022-10-09T13:01:05.706Z,0.98
2022-10-09T13:03:39.409Z,0.90
2022-10-09T13:06:13.598Z,1.02
2022-10-09T13:08:40.846Z,1.02
2022-10-09T13:11:24.923Z,0.90
2022-10-09T13:13:53.700Z,1.10
2022-10-09T13:16:20.965Z,1.20
2022-10-09T13:19:01.893Z,1.10
2022-10-09T13:21:35.217Z,1.10
2022-10-09T13:24:10.145Z,0.88
2022-10-09T13:26:39.014Z,1.05
2022-10-09T13:29:07.118Z,1.20
2022-10-09T13:31:36.531Z,1.08
2022-10-09T13:34:13.212Z,1.00
2022-10-09T13:36:40.177Z,1.20
2022-10-09T13:39:06.590Z,1.20
2022-10-09T13:41:33.773Z,1.00
2022-10-09T13:44:00.223Z,1.10
2022-10-09T13:46:26.757Z,0.80
2022-10-09T13:48:53.168Z,1.10
2022-10-09T13:51:19.560Z,1.05
2022-10-09T13:53:45.949Z,1.10
2022-10-09T13:56:12.336Z,1.00
2022-10-09T13:58:38.877Z,1.00
2022-10-09T14:01:05.697Z,0.98
2022-10-09T14:03:32.160Z,1.15
2022-10-09T14:05:59.796Z,1.17
2022-10-09T14:08:26.503Z,0.98
2022-10-09T14:10:53.176Z,0.95
2022-10-09T14:13:20.608Z,1.00
2022-10-09T14:15:47.609Z,1.10
2022-10-09T14:18:14.113Z,1.10
2022-10-09T14:20:40.518Z,0.98
2022-10-09T14:23:06.995Z,1.33
2022-10-09T14:25:37.108Z,0.88
2022-10-09T14:28:03.713Z,1.10
2022-10-09T14:30:30.714Z,0.90
2022-10-09T14:32:57.473Z,1.15
2022-10-09T14:35:24.131Z,1.00
2022-10-09T14:37:50.738Z,0.73
2022-10-09T14:40:17.266Z,1.02
2022-10-09T14:42:43.674Z,1.08
2022-10-09T14:45:10.875Z,1.13
2022-10-09T14:47:37.382Z,0.93
2022-10-09T14:50:04.268Z,0.90
2022-10-09T14:52:30.826Z,0.80
2022-10-09T14:54:57.248Z,1.10
2022-10-09T14:57:23.692Z,0.85
2022-10-09T14:59:50.132Z,1.00
2022-10-09T15:02:17.146Z,0.90
2022-10-09T15:04:43.555Z,0.80
2022-10-09T15:07:09.984Z,1.20
2022-10-09T15:09:36.445Z,1.02
2022-10-09T15:12:03.104Z,1.08
2022-10-09T15:14:29.517Z,0.95
2022-10-09T15:16:55.990Z,0.80
2022-10-09T15:19:22.383Z,0.95
2022-10-09T15:21:48.843Z,0.90
2022-10-09T15:24:15.303Z,0.90
2022-10-09T15:26:42.075Z,0.93
2022-10-09T15:29:09.069Z,1.00
2022-10-09T15:31:38.536Z,0.70
2022-10-09T15:34:07.659Z,1.10
2022-10-09T15:36:36.817Z,0.80
2022-10-09T15:39:07.048Z,0.90
2022-10-09T15:41:36.887Z,0.82
2022-10-09T15:44:06.307Z,0.88
2022-10-09T15:46:32.948Z,0.70
2022-10-09T15:48:59.480Z,0.82
2022-10-09T15:51:26.099Z,0.80
2022-10-09T15:53:53.218Z,0.80
2022-10-09T15:56:23.156Z,1.10
2022-10-09T15:58:50.651Z,0.75
2022-10-09T16:01:17.710Z,0.93
2022-10-09T16:03:44.775Z,0.65
2022-10-09T16:06:14.747Z,0.77
2022-10-09T16:08:42.660Z,0.80
2022-10-09T16:11:11.734Z,0.73
2022-10-09T16:13:40.110Z,0.90
2022-10-09T16:16:09.823Z,0.90
2022-10-09T16:18:38.129Z,0.75
2022-10-09T16:21:07.209Z,0.90
2022-10-09T16:23:33.956Z,0.82
2022-10-09T16:26:03.268Z,0.90
2022-10-09T16:28:34.730Z,0.90
2022-10-09T16:31:01.332Z,0.73
2022-10-09T16:33:28.478Z,0.80
2022-10-09T16:35:55.012Z,0.68
2022-10-09T16:38:21.523Z,0.80
2022-10-09T16:41:01.416Z,0.75
2022-10-09T16:43:29.060Z,0.80
2022-10-09T16:45:55.493Z,0.70
2022-10-09T16:48:21.954Z,0.98
2022-10-09T16:50:48.361Z,0.80
2022-10-09T16:53:14.943Z,0.80
2022-10-09T16:55:41.387Z,0.70
2022-10-09T16:58:07.872Z,0.80
2022-10-09T17:00:34.424Z,0.90
2022-10-09T17:03:00.981Z,0.68
2022-10-09T17:05:27.448Z,0.60
2022-10-09T17:07:54.348Z,0.60
2022-10-09T17:10:20.828Z,0.77
2022-10-09T17:12:47.262Z,0.80
2022-10-09T17:15:13.870Z,1.00
2022-10-09T17:17:40.911Z,0.80
2022-10-09T17:20:07.854Z,0.80
2022-10-09T17:22:34.295Z,0.68
2022-10-09T17:25:00.691Z,1.00
2022-10-09T17:27:27.659Z,0.98
2022-10-09T17:29:54.614Z,0.80
2022-10-09T17:32:21.165Z,0.80
2022-10-09T17:34:47.718Z,0.70
2022-10-09T17:37:14.145Z,0.90
2022-10-09T17:39:43.418Z,0.90
2022-10-09T17:42:11.265Z,0.80
2022-10-09T17:44:37.755Z,0.80
2022-10-09T17:47:05.329Z,0.70
2022-10-09T17:49:31.878Z,0.80
2022-10-09T17:51:58.336Z,0.88
2022-10-09T17:54:24.819Z,0.75
2022-10-09T17:56:51.252Z,0.70
2022-10-09T17:59:17.698Z,0.80
2022-10-09T18:01:44.206Z,0.80
2022-10-09T18:04:17.362Z,0.75
2022-10-09T18:06:43.905Z,0.85
2022-10-09T18:09:10.482Z,0.93
2022-10-09T18:11:37.247Z,0.90
2022-10-09T18:14:04.266Z,0.80
2022-10-09T18:16:36.302Z,0.90
2022-10-09T18:19:06.320Z,0.80
2022-10-09T18:21:34.073Z,0.82
2022-10-09T18:24:00.592Z,1.10
2022-10-09T18:26:27.376Z,0.80
2022-10-09T18:28:53.866Z,0.95
2022-10-09T18:31:35.291Z,0.70
2022-10-09T18:34:01.737Z,0.80
2022-10-09T18:36:31.330Z,0.90
2022-10-09T18:39:05.801Z,0.90
2022-10-09T18:41:32.670Z,0.90
2022-10-09T18:44:01.359Z,0.80
2022-10-09T18:46:33.899Z,0.90
2022-10-09T18:49:00.729Z,0.93
2022-10-09T18:51:28.678Z,1.02
2022-10-09T18:53:59.874Z,1.20
2022-10-09T18:56:29.611Z,0.93
2022-10-09T18:58:56.157Z,0.93
2022-10-09T19:01:22.749Z,0.95
2022-10-09T19:03:50.357Z,0.80
2022-10-09T19:06:18.523Z,0.73
2022-10-09T19:08:45.892Z,1.05
2022-10-09T19:11:14.285Z,0.80
2022-10-09T19:13:42.350Z,0.80
2022-10-09T19:16:09.824Z,0.95
2022-10-09T19:18:36.341Z,0.88
2022-10-09T19:21:02.944Z,0.80
2022-10-09T19:23:29.513Z,0.77
2022-10-09T19:25:57.645Z,0.88
2022-10-09T19:28:26.973Z,0.82
2022-10-09T19:30:54.502Z,0.88
2022-10-09T19:33:21.036Z,0.80
2022-10-09T19:35:52.759Z,0.80
2022-10-09T19:38:21.202Z,1.00
2022-10-09T19:40:48.553Z,0.82
2022-10-09T19:43:16.295Z,0.85
2022-10-09T19:45:43.266Z,0.85
2022-10-09T19:48:10.290Z,0.90
2022-10-09T19:50:44.062Z,1.00
2022-10-09T19:53:11.296Z,0.75
2022-10-09T19:55:38.116Z,1.10
2022-10-09T19:58:05.123Z,1.00
2022-10-09T20:00:31.726Z,0.80
2022-10-09T20:02:58.176Z,0.98
2022-10-09T20:05:24.743Z,0.82
2022-10-09T20:07:51.185Z,0.70
2022-10-09T20:10:17.634Z,0.73
2022-10-09T20:12:44.080Z,0.73
2022-10-09T20:15:10.803Z,1.00
2022-10-09T20:17:37.212Z,0.90
2022-10-09T20:20:05.228Z,0.80
2022-10-09T20:22:31.652Z,1.15
2022-10-09T20:24:58.117Z,0.90
2022-10-09T20:27:24.551Z,0.90
2022-10-09T20:29:53.073Z,0.80
2022-10-09T20:32:19.650Z,1.05
2022-10-09T20:34:46.071Z,0.70
2022-10-09T20:37:12.516Z,0.90
2022-10-09T20:39:38.962Z,0.70
2022-10-09T20:42:05.472Z,0.80
2022-10-09T20:44:31.997Z,1.00
2022-10-09T20:46:58.413Z,0.90
2022-10-09T20:49:24.879Z,0.90
2022-10-09T20:51:53.085Z,1.08
2022-10-09T20:54:21.590Z,0.82
2022-10-09T20:56:48.828Z,0.90
2022-10-09T20:59:16.222Z,0.70
2022-10-09T21:01:42.955Z,1.00
2022-10-09T21:04:11.165Z,0.80
2022-10-09T21:06:38.064Z,0.80
2022-10-09T21:09:04.957Z,1.02
2022-10-09T21:11:34.884Z,0.93
2022-10-09T21:14:02.668Z,0.98
2022-10-09T21:16:29.252Z,0.90
2022-10-09T21:18:58.753Z,1.00
2022-10-09T21:21:25.722Z,0.90
2022-10-09T21:23:53.946Z,0.63
2022-10-09T21:26:22.044Z,0.73
2022-10-09T21:28:49.169Z,0.70
2022-10-09T21:31:22.892Z,0.95
2022-10-09T21:33:49.986Z,1.00
2022-10-09T21:36:23.865Z,1.10
2022-10-09T21:38:50.276Z,0.88
2022-10-09T21:41:16.702Z,0.80
2022-10-09T21:43:45.591Z,1.10
2022-10-09T21:46:11.981Z,0.80
2022-10-09T21:48:38.378Z,1.00
2022-10-09T21:51:05.045Z,0.70
2022-10-09T21:53:31.977Z,0.90
2022-10-09T21:55:58.350Z,0.90
2022-10-09T21:58:24.826Z,0.80
2022-10-09T22:00:58.854Z,0.70
2022-10-09T22:03:27.422Z,0.70
2022-10-09T22:05:54.313Z,0.70
2022-10-09T22:08:23.669Z,0.80
2022-10-09T22:10:50.181Z,0.70
2022-10-09T22:13:17.603Z,0.80
2022-10-09T22:15:48.829Z,0.82
2022-10-09T22:18:17.392Z,0.80
2022-10-09T22:20:46.909Z,0.80
2022-10-09T22:23:14.350Z,0.90
2022-10-09T22:25:40.766Z,0.70
2022-10-09T22:28:07.540Z,0.68
2022-10-09T22:30:34.126Z,0.80
2022-10-09T22:33:00.590Z,0.88
2022-10-09T22:35:27.543Z,0.70
2022-10-09T22:37:54.088Z,0.93
2022-10-09T22:40:20.641Z,1.05
2022-10-09T22:42:47.346Z,0.80
2022-10-09T22:45:14.016Z,0.90
2022-10-09T22:47:40.510Z,0.80
2022-10-09T22:50:07.338Z,0.80
2022-10-09T22:52:33.730Z,0.80
2022-10-09T22:55:00.673Z,0.98
2022-10-09T22:57:27.099Z,0.90
2022-10-09T22:59:53.598Z,0.80
2022-10-09T23:02:19.994Z,0.88
2022-10-09T23:04:46.410Z,0.70
2022-10-09T23:07:12.894Z,0.80
2022-10-09T23:09:39.351Z,1.05
2022-10-09T23:12:05.891Z,0.80
2022-10-09T23:14:32.627Z,0.80
2022-10-09T23:16:59.063Z,0.85
2022-10-09T23:19:25.508Z,0.80
2022-10-09T23:21:51.939Z,0.80
2022-10-09T23:24:18.456Z,1.00
2022-10-09T23:26:46.515Z,0.90
2022-10-09T23:29:16.193Z,0.98
2022-10-09T23:31:43.249Z,1.00
2022-10-09T23:34:09.865Z,0.75
2022-10-09T23:36:36.348Z,0.98
2022-10-09T23:39:06.113Z,0.70
2022-10-09T23:41:35.926Z,1.13
2022-10-09T23:44:02.588Z,1.00
2022-10-09T23:46:33.026Z,1.10
2022-10-09T23:49:00.041Z,0.80
2022-10-09T23:51:27.550Z,0.80
2022-10-09T23:53:54.453Z,0.70
2022-10-09T23:56:26.403Z,0.90
2022-10-09T23:58:54.275Z,1.23
